Time;durP1;ratioP1;P1;durP2;ratioP2;P2;SDS_P1;SDS_P2;PMS_P1;PMS_P2;Temp;Humidity;BMP_temperature;BMP_pressure;BME280_temperature;BME280_humidity;BME280_pressure;Samples;Min_cycle;Max_cycle;Signal;HPM_P1;HPM_P2
2023/10/18 00:00:58;;;;;;;97.70;68.50;;;;;;;1.55;100.00;99281.73;109622;1250;60189;-66
2023/10/18 00:03:42;;;;;;;93.10;68.20;;;;;;;1.54;100.00;99282.98;109585;1250;62849;-66
2023/10/18 00:06:15;;;;;;;85.80;65.50;;;;;;;1.53;100.00;99281.45;109624;1251;58159;-66
2023/10/18 00:08:45;;;;;;;88.60;64.30;;;;;;;1.49;100.00;99276.64;109586;1250;58155;-66
2023/10/18 00:11:13;;;;;;;89.80;66.80;;;;;;;1.46;100.00;99276.71;109608;1251;66368;-66
2023/10/18 00:13:39;;;;;;;88.20;66.90;;;;;;;1.45;100.00;99280.61;109583;1250;59043;-66
2023/10/18 00:16:07;;;;;;;90.70;68.80;;;;;;;1.42;100.00;99278.59;109422;1251;58791;-67
2023/10/18 00:18:35;;;;;;;93.20;69.80;;;;;;;1.40;100.00;99279.33;109605;1250;58259;-67
2023/10/18 00:21:06;;;;;;;102.50;73.90;;;;;;;1.38;100.00;99279.20;109590;1250;58187;-67
2023/10/18 00:23:33;;;;;;;101.90;70.70;;;;;;;1.37;100.00;99278.52;109540;1250;63684;-67
2023/10/18 00:26:06;;;;;;;99.50;71.30;;;;;;;1.35;100.00;99274.37;109638;1250;60270;-67
2023/10/18 00:28:34;;;;;;;100.20;71.70;;;;;;;1.32;100.00;99271.30;109587;1250;62654;-67
2023/10/18 00:31:17;;;;;;;95.20;69.50;;;;;;;1.27;100.00;99270.71;109622;1250;58211;-67
2023/10/18 00:33:44;;;;;;;92.20;68.20;;;;;;;1.22;100.00;99269.63;109549;1250;58133;-67
2023/10/18 00:36:11;;;;;;;92.40;66.80;;;;;;;1.17;100.00;99265.73;109367;1250;66438;-67
2023/10/18 00:38:41;;;;;;;85.90;65.70;;;;;;;1.08;100.00;99264.70;109594;1250;59397;-67
2023/10/18 00:41:21;;;;;;;102.20;73.30;;;;;;;1.00;100.00;99261.23;109582;1250;63855;-66
2023/10/18 00:43:52;;;;;;;88.90;66.00;;;;;;;0.98;100.00;99254.11;109624;1250;58149;-67
2023/10/18 00:46:19;;;;;;;89.50;64.00;;;;;;;0.94;100.00;99248.95;109568;1250;60261;-66
2023/10/18 00:48:46;;;;;;;81.30;60.90;;;;;;;0.87;100.00;99250.34;109596;1250;65049;-66
2023/10/18 00:51:17;;;;;;;79.30;57.60;;;;;;;0.81;100.00;99248.55;109614;1250;59834;-66
2023/10/18 00:53:47;;;;;;;79.10;59.90;;;;;;;0.81;100.00;99246.29;109611;1250;62671;-66
2023/10/18 00:56:16;;;;;;;76.60;58.70;;;;;;;0.80;100.00;99241.75;109613;1250;58246;-66
2023/10/18 00:58:44;;;;;;;75.10;55.00;;;;;;;0.78;100.00;99239.02;109544;1250;58296;-66
2023/10/18 01:01:11;;;;;;;76.70;55.90;;;;;;;0.76;100.00;99239.75;109516;1251;65980;-65
2023/10/18 01:03:42;;;;;;;72.90;54.40;;;;;;;0.73;100.00;99235.28;109620;1250;59706;-66
2023/10/18 01:06:16;;;;;;;78.70;55.30;;;;;;;0.70;100.00;99233.42;109570;1250;63808;-66
2023/10/18 01:08:44;;;;;;;75.50;55.50;;;;;;;0.69;100.00;99233.28;109327;1251;58395;-66
2023/10/18 01:11:11;;;;;;;78.00;57.40;;;;;;;0.69;100.00;99228.05;109365;1250;58228;-66
2023/10/18 01:13:41;;;;;;;78.40;55.50;;;;;;;0.66;100.00;99223.89;109595;1250;66433;-67
2023/10/18 01:16:23;;;;;;;84.30;59.20;;;;;;;0.61;100.00;99219.12;109619;1250;60263;-66
2023/10/18 01:18:55;;;;;;;82.60;58.60;;;;;;;0.57;100.00;99214.99;109613;1250;64092;-66
2023/10/18 01:21:22;;;;;;;81.60;57.30;;;;;;;0.57;100.00;99214.14;109582;1250;58173;-66
2023/10/18 01:23:51;;;;;;;84.20;57.90;;;;;;;0.54;100.00;99212.99;109620;1250;58188;-66
2023/10/18 01:26:19;;;;;;;81.30;59.60;;;;;;;0.52;100.00;99211.27;109571;1250;73441;-67
2023/10/18 01:28:46;;;;;;;84.90;59.30;;;;;;;0.54;100.00;99213.51;109633;1251;61090;-66
2023/10/18 01:31:13;;;;;;;85.20;59.70;;;;;;;0.56;100.00;99213.64;109604;1250;64295;-67
2023/10/18 01:33:43;;;;;;;84.80;59.50;;;;;;;0.58;100.00;99214.12;109621;1250;58202;-67
2023/10/18 01:36:14;;;;;;;80.30;57.50;;;;;;;0.55;100.00;99210.52;109596;1250;60240;-67
2023/10/18 01:38:42;;;;;;;83.00;59.60;;;;;;;0.52;100.00;99209.88;109623;1250;65271;-67
2023/10/18 01:41:16;;;;;;;87.00;59.80;;;;;;;0.50;100.00;99204.67;109650;1250;60147;-66
2023/10/18 01:43:47;;;;;;;82.70;58.90;;;;;;;0.49;100.00;99207.15;109621;1250;64055;-66
2023/10/18 01:46:14;;;;;;;83.80;61.20;;;;;;;0.47;100.00;99207.54;109414;1251;58293;-66
2023/10/18 01:48:40;;;;;;;87.90;62.00;;;;;;;0.46;100.00;99207.21;109597;1250;58175;-66
2023/10/18 01:51:09;;;;;;;86.20;58.60;;;;;;;0.45;100.00;99206.91;109617;1250;58801;-67
2023/10/18 01:53:41;;;;;;;79.60;59.40;;;;;;;0.42;100.00;99205.22;109585;1250;58918;-66
2023/10/18 01:56:07;;;;;;;82.90;60.50;;;;;;;0.40;100.00;99208.77;109626;1250;64052;-67
2023/10/18 01:58:35;;;;;;;85.00;62.60;;;;;;;0.40;100.00;99209.79;109635;1250;58176;-67
2023/10/18 02:01:08;;;;;;;83.00;61.10;;;;;;;0.41;100.00;99220.98;109587;1250;58977;-66
2023/10/18 02:03:36;;;;;;;84.70;63.40;;;;;;;0.40;100.00;99225.55;109527;1250;64020;-67
2023/10/18 02:06:06;;;;;;;84.60;63.30;;;;;;;0.40;100.00;99224.48;109631;1250;59837;-67
2023/10/18 02:08:36;;;;;;;92.80;62.40;;;;;;;0.39;100.00;99223.80;109620;1250;65555;-67
2023/10/18 02:11:07;;;;;;;89.60;63.70;;;;;;;0.39;100.00;99226.42;109611;1250;58200;-66
2023/10/18 02:13:33;;;;;;;83.60;60.40;;;;;;;0.40;100.00;99221.52;109606;1250;58223;-67
2023/10/18 02:16:00;;;;;;;87.30;59.80;;;;;;;0.40;100.00;99220.29;109372;1251;65056;-67
2023/10/18 02:18:27;;;;;;;78.10;56.30;;;;;;;0.39;100.00;99222.41;109636;1250;61336;-66
2023/10/18 02:20:53;;;;;;;80.90;58.50;;;;;;;0.36;100.00;99225.27;109589;1250;62835;-67
2023/10/18 02:23:25;;;;;;;77.50;57.70;;;;;;;0.34;100.00;99228.11;109644;1250;58214;-67
2023/10/18 02:25:52;;;;;;;89.40;59.20;;;;;;;0.31;100.00;99228.52;109341;1250;58227;-67
2023/10/18 02:28:22;;;;;;;79.90;56.70;;;;;;;0.29;100.00;99222.47;109508;1250;66638;-66
2023/10/18 02:31:13;;;;;;;81.00;57.60;;;;;;;0.21;100.00;99213.55;109600;1250;58716;-67
2023/10/18 02:33:42;;;;;;;79.10;56.00;;;;;;;0.12;100.00;99216.17;109620;1250;64119;-67
2023/10/18 02:36:13;;;;;;;78.10;58.40;;;;;;;0.09;100.00;99216.59;109604;1250;58127;-67
2023/10/18 02:38:41;;;;;;;78.20;55.70;;;;;;;0.06;100.00;99214.72;109590;1251;58268;-67
2023/10/18 02:41:15;;;;;;;75.70;56.20;;;;;;;0.02;100.00;99220.94;109619;1250;65257;-66
2023/10/18 02:43:45;;;;;;;77.50;55.30;;;;;;;-0.04;100.00;99220.34;109548;1251;58967;-67
2023/10/18 02:46:13;;;;;;;79.20;56.90;;;;;;;-0.12;100.00;99219.81;109598;1250;62814;-66
2023/10/18 02:48:43;;;;;;;80.60;57.70;;;;;;;-0.19;100.00;99222.93;109555;1250;58222;-67
2023/10/18 02:51:13;;;;;;;87.80;60.50;;;;;;;-0.24;100.00;99219.00;109632;1250;58515;-66
2023/10/18 02:53:40;;;;;;;;;;;;;;;-0.27;100.00;99220.10;109443;1251;64910;-66
2023/10/18 02:56:17;;;;;;;87.10;61.90;;;;;;;-0.30;100.00;99217.71;109610;1250;59883;-67
2023/10/18 02:58:44;;;;;;;91.00;63.30;;;;;;;-0.32;100.00;99218.63;109625;1250;62839;-66
2023/10/18 03:01:18;;;;;;;92.80;68.90;;;;;;;-0.31;100.00;99213.73;109554;1251;58240;-67
2023/10/18 03:03:54;;;;;;;96.90;69.00;;;;;;;-0.30;100.00;99211.61;109573;1250;58156;-66
2023/10/18 03:06:27;;;;;;;93.30;68.40;;;;;;;-0.30;100.00;99216.33;109622;1251;65601;-67
2023/10/18 03:08:58;;;;;;;94.90;65.80;;;;;;;-0.29;100.00;99219.79;109608;1250;60153;-67
2023/10/18 03:11:25;;;;;;;95.70;69.80;;;;;;;-0.28;100.00;99221.52;109617;1250;63741;-67
2023/10/18 03:13:51;;;;;;;95.20;69.20;;;;;;;-0.28;100.00;99221.88;109572;1250;58133;-66
2023/10/18 03:16:38;;;;;;;92.20;66.30;;;;;;;-0.28;100.00;99218.20;109593;1250;58205;-66
2023/10/18 03:19:12;;;;;;;95.20;69.20;;;;;;;-0.29;100.00;99214.21;109635;1250;64023;-66
2023/10/18 03:21:47;;;;;;;96.40;70.20;;;;;;;-0.32;100.00;99211.99;109569;1250;59885;-66
2023/10/18 03:24:13;;;;;;;93.40;68.70;;;;;;;-0.35;100.00;99209.97;109486;1251;64001;-66
2023/10/18 03:26:41;;;;;;;94.60;69.10;;;;;;;-0.38;100.00;99213.52;109571;1250;58512;-67
2023/10/18 03:29:16;;;;;;;89.60;67.90;;;;;;;-0.39;100.00;99217.20;109399;1250;58338;-67
2023/10/18 03:31:44;;;;;;;91.00;66.00;;;;;;;-0.39;100.00;99218.25;109621;1250;64090;-67
2023/10/18 03:34:29;;;;;;;94.10;63.70;;;;;;;-0.39;100.00;99213.53;109573;1251;59831;-67
2023/10/18 03:36:55;;;;;;;87.20;62.50;;;;;;;-0.39;100.00;99205.88;109571;1250;64072;-67
2023/10/18 03:39:25;;;;;;;87.70;63.00;;;;;;;-0.42;100.00;99201.54;109569;1250;58263;-67
2023/10/18 03:41:53;;;;;;;92.00;68.10;;;;;;;-0.44;100.00;99197.73;109637;1250;58525;-67
2023/10/18 03:44:32;;;;;;;90.60;64.30;;;;;;;-0.48;100.00;99194.50;109616;1250;65516;-67
2023/10/18 03:47:14;;;;;;;90.60;63.60;;;;;;;-0.51;100.00;99191.60;109421;1251;58579;-67
2023/10/18 03:49:41;;;;;;;83.10;62.00;;;;;;;-0.54;100.00;99185.02;109540;1250;64243;-67
2023/10/18 03:57:18;;;;;;;83.60;62.50;;;;;;;-0.60;100.00;99177.82;109608;1250;63823;-67
2023/10/18 03:59:46;;;;;;;85.90;62.40;;;;;;;-0.60;100.00;99176.08;109600;1250;60193;-67
2023/10/18 04:02:16;;;;;;;90.50;63.10;;;;;;;-0.61;100.00;99174.33;109541;1250;64233;-67
2023/10/18 04:04:48;;;;;;;90.70;64.20;;;;;;;-0.61;100.00;99169.98;109575;1250;58151;-67
2023/10/18 04:07:20;;;;;;;87.20;63.00;;;;;;;-0.61;100.00;99169.27;109609;1250;58225;-67
2023/10/18 04:09:54;;;;;;;84.00;61.90;;;;;;;-0.61;100.00;99165.80;109419;1250;65202;-67
2023/10/18 04:12:22;;;;;;;86.40;62.80;;;;;;;-0.63;100.00;99165.48;109610;1250;58948;-67
2023/10/18 04:14:52;;;;;;;83.90;59.50;;;;;;;-0.64;100.00;99167.06;109570;1250;62606;-67
2023/10/18 04:17:31;;;;;;;80.40;60.40;;;;;;;-0.68;100.00;99161.54;109564;1250;58994;-67
2023/10/18 04:20:08;;;;;;;82.00;59.60;;;;;;;-0.68;100.00;99165.39;109627;1250;58989;-67
2023/10/18 04:22:42;;;;;;;88.20;61.50;;;;;;;-0.67;100.00;99163.80;109546;1250;65260;-67
2023/10/18 04:25:16;;;;;;;87.30;60.30;;;;;;;-0.67;100.00;99161.87;109622;1250;58990;-67
2023/10/18 04:27:47;;;;;;;86.70;60.20;;;;;;;-0.69;100.00;99166.27;109568;1250;62836;-67
2023/10/18 04:30:16;;;;;;;86.90;62.70;;;;;;;-0.70;100.00;99164.57;109515;1250;58282;-67
2023/10/18 04:32:43;;;;;;;87.60;60.40;;;;;;;-0.70;100.00;99163.51;109611;1250;58133;-67
2023/10/18 04:35:10;;;;;;;86.30;62.80;;;;;;;-0.69;100.00;99165.24;109565;1251;58491;-67
2023/10/18 04:37:37;;;;;;;85.00;60.70;;;;;;;-0.70;100.00;99171.54;109630;1250;58872;-67
2023/10/18 04:40:06;;;;;;;85.30;61.40;;;;;;;-0.70;100.00;99173.11;109606;1250;62809;-67
2023/10/18 04:42:33;;;;;;;88.70;62.70;;;;;;;-0.71;100.00;99170.50;109528;1250;58169;-67
2023/10/18 04:45:16;;;;;;;86.20;62.90;;;;;;;-0.71;100.00;99176.25;109627;1251;58237;-67
2023/10/18 04:47:42;;;;;;;85.50;62.70;;;;;;;-0.72;100.00;99175.06;109596;1250;73022;-67
2023/10/18 04:50:11;;;;;;;84.70;60.50;;;;;;;-0.74;100.00;99176.48;109590;1250;58353;-67
2023/10/18 04:52:41;;;;;;;89.30;61.60;;;;;;;-0.75;100.00;99179.48;109371;1251;64114;-67
2023/10/18 04:55:11;;;;;;;85.80;62.70;;;;;;;-0.76;100.00;99177.59;109571;1250;58470;-67
2023/10/18 04:57:39;;;;;;;81.50;56.90;;;;;;;-0.79;100.00;99175.02;108824;1250;1002564;-67
2023/10/18 05:00:34;;;;;;;79.00;56.10;;;;;;;-0.82;100.00;99176.98;109609;1250;65175;-67
2023/10/18 05:03:13;;;;;;;81.60;57.70;;;;;;;-0.86;100.00;99172.01;108790;1251;1002538;-67
2023/10/18 05:05:44;;;;;;;79.20;57.20;;;;;;;-0.91;100.00;99171.39;109550;1250;73754;-67
2023/10/18 05:08:15;;;;;;;78.50;55.10;;;;;;;-0.95;100.00;99173.20;109550;1250;58442;-67
2023/10/18 05:10:45;;;;;;;76.30;56.40;;;;;;;-0.97;100.00;99174.13;109590;1250;58204;-67
2023/10/18 05:16:09;;;;;;;85.60;62.10;;;;;;;-0.98;100.00;99175.34;109590;1250;58889;-66
2023/10/18 05:18:37;;;;;;;85.50;60.80;;;;;;;-0.94;100.00;99178.92;109369;1251;64571;-66
2023/10/18 05:21:08;;;;;;;86.20;61.60;;;;;;;-0.92;100.00;99176.98;109517;1251;58211;-67
2023/10/18 05:23:35;;;;;;;91.70;62.40;;;;;;;-0.90;100.00;99175.02;109612;1251;58232;-68
2023/10/18 05:28:47;;;;;;;89.90;61.40;;;;;;;-0.85;100.00;99174.44;109632;1250;59347;-67
2023/10/18 05:34:04;;;;;;;94.90;61.60;;;;;;;-0.79;100.00;99177.63;109564;1250;58521;-67
2023/10/18 05:36:35;;;;;;;79.80;52.40;;;;;;;-0.69;100.00;99174.30;109557;1250;61461;-66
2023/10/18 05:39:18;;;;;;;89.30;56.90;;;;;;;-0.57;100.00;99174.44;109591;1250;66196;-67
2023/10/18 05:41:45;;;;;;;84.80;55.60;;;;;;;-0.52;100.00;99177.99;109551;1251;60164;-67
2023/10/18 05:44:13;;;;;;;89.00;57.00;;;;;;;-0.50;100.00;99181.79;109612;1250;64078;-67
2023/10/18 05:46:39;;;;;;;83.40;56.80;;;;;;;-0.48;100.00;99186.47;109576;1251;58169;-67
2023/10/18 05:49:25;;;;;;;81.00;53.20;;;;;;;-0.44;100.00;99186.76;109424;1251;58256;-67
2023/10/18 05:51:52;;;;;;;74.00;50.40;;;;;;;-0.40;100.00;99187.02;108772;1251;1002333;-67
2023/10/18 05:54:24;;;;;;;76.10;52.80;;;;;;;-0.38;100.00;99187.16;109537;1250;59997;-67
2023/10/18 05:56:52;;;;;;;76.30;53.10;;;;;;;-0.34;100.00;99188.13;109606;1250;62769;-67
2023/10/18 06:02:00;;;;;;;68.60;50.90;;;;;;;-0.24;100.00;99189.66;109593;1250;58219;-66
2023/10/18 06:04:37;;;;;;;72.10;51.30;;;;;;;-0.18;100.00;99193.40;109557;1250;64971;-66
2023/10/18 06:07:13;;;;;;;70.90;52.00;;;;;;;-0.13;100.00;99196.09;109637;1250;59981;-66
2023/10/18 06:09:46;;;;;;;68.70;49.00;;;;;;;-0.08;100.00;99195.82;109591;1250;63838;-66
2023/10/18 06:12:14;;;;;;;67.00;52.40;;;;;;;-0.03;100.00;99198.84;109541;1251;58214;-67
2023/10/18 06:14:44;;;;;;;74.50;57.20;;;;;;;0.05;100.00;99198.85;109434;1250;58288;-66
2023/10/18 06:17:19;;;;;;;75.50;59.60;;;;;;;0.14;100.00;99197.44;109569;1250;73857;-67
2023/10/18 06:19:47;;;;;;;73.80;55.80;;;;;;;0.23;100.00;99200.90;109628;1250;59906;-67
2023/10/18 06:22:29;;;;;;;74.10;54.80;;;;;;;0.31;100.00;99203.00;109584;1251;64135;-67
2023/10/18 06:24:57;;;;;;;65.10;50.00;;;;;;;0.39;100.00;99204.58;109551;1250;58199;-67
2023/10/18 06:27:24;;;;;;;71.00;54.30;;;;;;;0.46;100.00;99200.94;109597;1250;58157;-67
2023/10/18 06:29:53;;;;;;;71.90;55.20;;;;;;;0.52;100.00;99198.16;109576;1250;65272;-67
2023/10/18 06:32:25;;;;;;;68.40;54.60;;;;;;;0.62;100.00;99193.05;109538;1251;60085;-66
2023/10/18 06:34:57;;;;;;;67.50;53.20;;;;;;;0.73;100.00;99191.02;109534;1250;62817;-67
2023/10/18 06:37:24;;;;;;;68.50;52.60;;;;;;;0.84;100.00;99188.84;109577;1251;58172;-66
2023/10/18 06:39:51;;;;;;;71.20;53.90;;;;;;;0.94;100.00;99183.18;109588;1250;58223;-66
2023/10/18 06:42:18;;;;;;;71.50;54.70;;;;;;;1.05;100.00;99182.92;109605;1251;66443;-66
2023/10/18 06:44:44;;;;;;;72.30;60.90;;;;;;;1.16;100.00;99178.76;109558;1251;60147;-67
2023/10/18 06:47:13;;;;;;;78.30;64.10;;;;;;;1.29;100.00;99179.85;109601;1250;58464;-67
2023/10/18 06:49:42;;;;;;;79.40;62.20;;;;;;;1.38;100.00;99180.48;109562;1250;58937;-66
2023/10/18 06:52:14;;;;;;;72.00;58.00;;;;;;;1.47;100.00;99179.19;109631;1250;58144;-66
2023/10/18 06:54:40;;;;;;;70.60;57.50;;;;;;;1.59;100.00;99180.95;109553;1251;63928;-66
2023/10/18 06:57:16;;;;;;;71.20;53.90;;;;;;;1.68;100.00;99177.55;109582;1251;60261;-67
2023/10/18 06:59:44;;;;;;;68.70;54.00;;;;;;;1.76;100.00;99174.70;109595;1251;64038;-67
2023/10/18 07:02:12;;;;;;;70.40;56.10;;;;;;;1.83;100.00;99173.80;109568;1251;58475;-67
2023/10/18 07:04:38;;;;;;;69.10;56.10;;;;;;;1.93;100.00;99170.00;109576;1250;58046;-67
2023/10/18 07:07:19;;;;;;;65.40;53.30;;;;;;;2.06;100.00;99169.28;109585;1250;63947;-67
2023/10/18 07:09:52;;;;;;;62.50;49.20;;;;;;;2.19;100.00;99166.25;109586;1250;58973;-67
2023/10/18 07:12:26;;;;;;;62.90;50.00;;;;;;;2.33;100.00;99167.23;109538;1250;64159;-66
2023/10/18 07:14:56;;;;;;;60.50;50.10;;;;;;;2.47;100.00;99168.38;109590;1250;58309;-66
2023/10/18 07:17:24;;;;;;;66.40;49.30;;;;;;;2.60;100.00;99169.89;109571;1250;58073;-67
2023/10/18 07:19:58;;;;;;;59.80;47.80;;;;;;;2.73;100.00;99169.49;109586;1250;64937;-67
2023/10/18 07:22:44;;;;;;;62.30;47.80;;;;;;;2.87;100.00;99167.11;109572;1251;60228;-67
2023/10/18 07:25:21;;;;;;;57.10;45.50;;;;;;;3.01;100.00;99161.55;109574;1250;64121;-67
2023/10/18 07:27:48;;;;;;;58.70;44.40;;;;;;;3.14;100.00;99161.28;109541;1250;58223;-67
2023/10/18 07:30:15;;;;;;;51.30;42.20;;;;;;;3.25;100.00;99159.17;109514;1251;58271;-67
2023/10/18 07:32:42;;;;;;;54.20;44.50;;;;;;;3.36;100.00;99158.42;109604;1251;64928;-67
2023/10/18 07:35:26;;;;;;;50.80;43.20;;;;;;;3.48;100.00;99159.39;109604;1251;59964;-67
2023/10/18 07:37:54;;;;;;;48.90;42.10;;;;;;;3.61;100.00;99160.69;107295;1250;1002199;-67
2023/10/18 07:40:21;;;;;;;50.60;40.30;;;;;;;3.73;100.00;99157.98;109575;1251;58533;-67
2023/10/18 07:42:51;;;;;;;47.60;36.90;;;;;;;3.85;100.00;99158.59;109601;1251;58250;-67
2023/10/18 07:45:21;;;;;;;41.00;36.30;;;;;;;3.95;100.00;99151.71;109632;1251;64493;-66
2023/10/18 07:47:53;;;;;;;42.60;36.20;;;;;;;4.07;100.00;99151.60;109600;1251;59856;-66
2023/10/18 07:50:41;;;;;;;42.00;35.80;;;;;;;4.23;100.00;99150.31;109570;1251;63809;-66
2023/10/18 07:53:12;;;;;;;41.70;35.60;;;;;;;4.38;100.00;99148.14;109584;1250;58248;-67
2023/10/18 07:55:41;;;;;;;41.10;34.50;;;;;;;4.51;100.00;99142.52;109546;1251;58604;-66
2023/10/18 07:58:21;;;;;;;40.20;34.00;;;;;;;4.62;100.00;99138.55;109414;1251;74827;-67
2023/10/18 08:03:33;;;;;;;46.90;38.70;;;;;;;4.87;100.00;99140.89;109582;1250;62405;-67
2023/10/18 08:06:06;;;;;;;44.10;37.00;;;;;;;4.97;100.00;99143.09;109556;1251;58194;-67
2023/10/18 08:08:35;;;;;;;45.60;36.30;;;;;;;5.05;100.00;99140.29;109594;1251;58427;-67
2023/10/18 08:11:05;;;;;;;42.30;35.10;;;;;;;5.15;100.00;99134.25;109593;1251;66343;-67
2023/10/18 08:13:32;;;;;;;45.80;35.70;;;;;;;5.25;100.00;99130.84;109569;1250;58941;-67
2023/10/18 08:16:10;;;;;;;47.80;37.40;;;;;;;5.37;100.00;99133.69;109572;1250;64038;-67
2023/10/18 08:18:42;;;;;;;47.60;36.40;;;;;;;5.50;100.00;99133.07;109554;1251;58151;-67
2023/10/18 08:21:28;;;;;;;47.60;37.00;;;;;;;5.63;100.00;99131.48;109593;1251;58521;-67
2023/10/18 08:23:55;;;;;;;46.70;35.90;;;;;;;5.72;100.00;99123.11;109571;1251;64313;-67
2023/10/18 08:26:26;;;;;;;43.00;34.80;;;;;;;5.84;100.00;99117.11;109591;1250;58618;-67
2023/10/18 08:28:53;;;;;;;44.00;34.70;;;;;;;5.97;100.00;99108.44;109387;1251;64217;-67
2023/10/18 08:31:32;;;;;;;40.30;33.50;;;;;;;6.08;100.00;99106.72;109573;1251;58439;-67
2023/10/18 08:34:04;;;;;;;41.40;32.80;;;;;;;6.18;100.00;99101.98;109540;1251;58169;-67
2023/10/18 08:36:32;;;;;;;37.50;30.30;;;;;;;6.29;100.00;99098.33;109550;1251;63852;-67
2023/10/18 08:39:01;;;;;;;34.80;29.20;;;;;;;6.39;100.00;99095.35;109565;1254;58683;-67
2023/10/18 08:41:33;;;;;;;37.40;29.60;;;;;;;6.51;100.00;99092.65;109366;1250;63843;-67
2023/10/18 08:44:15;;;;;;;31.70;27.40;;;;;;;6.63;100.00;99090.27;109404;1251;58274;-67
2023/10/18 08:46:51;;;;;;;33.90;26.40;;;;;;;6.75;100.00;99088.65;109422;1253;58232;-67
2023/10/18 08:49:23;;;;;;;30.90;26.90;;;;;;;6.87;100.00;99089.81;109571;1251;65333;-67
2023/10/18 08:52:06;;;;;;;31.10;27.20;;;;;;;6.99;100.00;99088.50;109581;1251;59851;-67
2023/10/18 08:54:33;;;;;;;36.70;26.40;;;;;;;7.11;100.00;99085.06;109513;1250;63821;-66
2023/10/18 08:57:08;;;;;;;28.30;25.10;;;;;;;7.22;100.00;99083.44;109532;1250;58115;-67
2023/10/18 08:59:42;;;;;;;28.20;22.00;;;;;;;7.33;100.00;99081.98;109566;1250;58858;-66
2023/10/18 09:02:23;;;;;;;27.00;22.40;;;;;;;7.42;100.00;99080.23;109585;1250;64998;-67
2023/10/18 09:04:59;;;;;;;30.90;22.00;;;;;;;7.53;100.00;99081.80;109549;1251;59889;-67
2023/10/18 09:07:44;;;;;;;28.20;22.20;;;;;;;7.66;100.00;99080.02;109442;1250;139818;-66
2023/10/18 09:10:33;;;;;;;29.60;23.70;;;;;;;7.81;100.00;99079.23;109539;1250;58172;-66
2023/10/18 09:16:34;;;;;;;28.50;20.20;;;;;;;8.08;100.00;99076.73;109545;1251;66263;-68
2023/10/18 09:18:35;;;;;;;23.60;19.20;;;;;;;8.20;100.00;99075.32;109486;1250;61421;-67
2023/10/18 09:21:17;;;;;;;22.50;19.10;;;;;;;8.30;100.00;99077.22;109565;1251;65208;-67
2023/10/18 09:23:45;;;;;;;20.90;17.90;;;;;;;8.41;100.00;99076.29;109593;1251;58527;-67
2023/10/18 09:26:18;;;;;;;19.90;16.90;;;;;;;8.52;100.00;99073.39;109581;1250;58376;-67
2023/10/18 09:28:46;;;;;;;20.10;17.70;;;;;;;8.61;100.00;99069.48;109531;1255;64156;-66
2023/10/18 09:31:21;;;;;;;19.90;16.50;;;;;;;8.71;100.00;99068.90;109616;1250;59921;-66
2023/10/18 09:33:52;;;;;;;24.40;16.40;;;;;;;8.80;100.00;99067.30;109563;1251;63781;-66
2023/10/18 09:36:20;;;;;;;21.40;18.60;;;;;;;8.89;100.00;99063.45;109557;1250;58122;-66
2023/10/18 09:38:48;;;;;;;22.80;17.60;;;;;;;8.97;100.00;99059.74;109559;1251;58303;-66
2023/10/18 09:41:15;;;;;;;20.70;17.20;;;;;;;9.08;100.00;99055.21;109562;1250;64939;-66
2023/10/18 09:43:44;;;;;;;21.20;18.00;;;;;;;9.20;100.00;99056.29;109647;1250;60026;-67
2023/10/18 09:46:10;;;;;;;25.40;19.10;;;;;;;9.30;100.00;99057.29;109506;1251;65139;-67
2023/10/18 09:48:41;;;;;;;21.70;18.60;;;;;;;9.38;100.00;99056.39;109548;1251;58207;-66
2023/10/18 09:51:15;;;;;;;17.50;13.20;;;;;;;9.47;100.00;99055.48;109558;1251;58163;-67
2023/10/18 09:53:49;;;;;;;14.60;12.60;;;;;;;9.56;100.00;99050.52;109620;1251;64942;-67
2023/10/18 09:56:33;;;;;;;19.60;15.10;;;;;;;9.66;100.00;99051.16;109560;1250;58741;-67
2023/10/18 09:59:16;;;;;;;15.60;12.70;;;;;;;9.76;100.00;99050.91;109547;1251;64063;-66
2023/10/18 10:04:14;;;;;;;12.70;10.20;;;;;;;10.01;100.00;99049.27;109536;1250;58455;-66
2023/10/18 10:06:47;;;;;;;12.40;10.60;;;;;;;10.11;100.00;99051.52;109595;1250;65300;-66
2023/10/18 10:09:14;;;;;;;12.50;10.50;;;;;;;10.19;100.00;99049.61;109563;1252;58928;-67
2023/10/18 10:11:46;;;;;;;15.90;13.10;;;;;;;10.24;100.00;99052.80;109607;1250;62575;-66
2023/10/18 10:14:17;;;;;;;14.00;12.30;;;;;;;10.29;100.00;99049.48;109507;1251;58141;-67
2023/10/18 10:17:05;;;;;;;14.60;13.10;;;;;;;10.40;100.00;99045.55;109550;1251;58342;-67
2023/10/18 10:19:41;;;;;;;14.30;10.60;;;;;;;10.47;100.00;99040.34;109568;1250;63700;-67
2023/10/18 10:22:11;;;;;;;16.10;10.90;;;;;;;10.44;100.00;99037.29;109548;1251;58825;-66
2023/10/18 10:24:43;;;;;;;13.30;11.30;;;;;;;10.46;100.00;99035.73;109566;1251;63744;-66
2023/10/18 10:27:27;;;;;;;11.90;9.90;;;;;;;10.52;100.00;99034.64;109611;1250;58211;-67
2023/10/18 10:29:58;;;;;;;12.40;9.90;;;;;;;10.63;100.00;99030.90;109587;1250;58125;-67
2023/10/18 10:32:24;;;;;;;10.80;9.10;;;;;;;10.72;100.00;99028.39;109575;1250;65217;-67
2023/10/18 10:35:11;;;;;;;11.10;9.70;;;;;;;10.85;100.00;99025.16;109575;1251;59910;-67
2023/10/18 10:37:49;;;;;;;12.20;9.10;;;;;;;10.99;100.00;99018.52;109580;1250;64150;-66
2023/10/18 10:40:29;;;;;;;11.80;9.80;;;;;;;11.09;100.00;99015.87;109554;1251;58274;-67
2023/10/18 10:43:04;;;;;;;14.40;9.40;;;;;;;11.09;100.00;99016.27;109581;1251;58241;-67
2023/10/18 10:45:38;;;;;;;11.00;9.00;;;;;;;11.08;100.00;99011.67;109595;1251;65233;-67
2023/10/18 10:48:17;;;;;;;10.60;9.10;;;;;;;11.18;100.00;99007.11;109560;1251;61068;-67
2023/10/18 10:50:50;;;;;;;13.30;9.70;;;;;;;11.29;100.00;99005.25;109498;1252;65358;-66
2023/10/18 10:53:30;;;;;;;13.10;10.20;;;;;;;11.39;100.00;99002.23;109543;1251;58265;-66
2023/10/18 10:55:57;;;;;;;11.80;9.60;;;;;;;11.50;100.00;98995.56;109573;1252;58157;-67
2023/10/18 10:58:29;;;;;;;11.50;9.70;;;;;;;11.53;100.00;98989.88;109507;1254;63953;-67
2023/10/18 11:00:59;;;;;;;13.70;9.90;;;;;;;11.49;100.00;98993.03;109503;1252;58930;-66
2023/10/18 11:03:54;;;;;;;11.80;9.80;;;;;;;11.50;100.00;98994.23;109515;1253;63774;-66
2023/10/18 11:06:24;;;;;;;12.90;9.70;;;;;;;11.58;100.00;98988.42;109330;1253;58249;-66
2023/10/18 11:08:52;;;;;;;11.40;9.80;;;;;;;11.69;100.00;98988.90;109494;1254;58298;-67
2023/10/18 11:11:22;;;;;;;12.60;10.00;;;;;;;11.73;100.00;98982.23;109545;1252;65242;-67
2023/10/18 11:13:52;;;;;;;;;;;;;;;11.78;100.00;98978.66;109544;1252;60096;-67
2023/10/18 11:16:21;;;;;;;12.30;9.60;;;;;;;11.83;100.00;98971.34;109457;1254;64051;-67
2023/10/18 11:18:49;;;;;;;13.60;9.30;;;;;;;11.91;100.00;98966.56;109539;1252;58341;-66
2023/10/18 11:21:19;;;;;;;11.30;9.30;;;;;;;11.94;100.00;98959.73;109497;1252;61485;-67
2023/10/18 11:23:50;;;;;;;10.20;8.60;;;;;;;11.96;100.00;98953.38;109537;1253;66108;-66
2023/10/18 11:26:24;;;;;;;10.50;9.20;;;;;;;11.98;100.00;98950.55;109477;1254;59901;-66
2023/10/18 11:28:55;;;;;;;10.80;8.50;;;;;;;12.00;100.00;98945.05;109481;1254;64077;-66
2023/10/18 11:31:26;;;;;;;11.70;10.50;;;;;;;11.96;100.00;98937.19;109479;1253;58448;-66
2023/10/18 11:36:19;;;;;;;10.10;8.90;;;;;;;12.00;100.00;98929.92;109543;1251;58120;-66
2023/10/18 11:41:36;;;;;;;10.20;8.80;;;;;;;12.03;100.00;98926.64;109513;1254;65341;-66
2023/10/18 11:44:07;;;;;;;9.70;8.00;;;;;;;12.06;100.00;98928.55;109517;1253;58125;-66
2023/10/18 11:47:19;;;;;;;9.10;7.40;;;;;;;12.06;100.00;98926.24;109527;1252;58252;-67
2023/10/18 11:49:39;;;;;;;8.30;6.90;;;;;;;12.09;100.00;98924.60;109480;1253;64938;-67
2023/10/18 11:52:17;;;;;;;8.90;6.40;;;;;;;12.13;100.00;98922.20;109523;1252;58851;-66
2023/10/18 11:54:45;;;;;;;7.70;6.60;;;;;;;12.14;100.00;98914.23;109559;1253;65274;-67
2023/10/18 11:57:42;;;;;;;8.70;7.00;;;;;;;12.16;100.00;98910.22;109455;1253;58216;-66